Time;durP1;ratioP1;P1;durP2;ratioP2;P2;SDS_P1;SDS_P2;PMS_P1;PMS_P2;Temp;Humidity;BMP_temperature;BMP_pressure;BME280_temperature;BME280_humidity;BME280_pressure;Samples;Min_cycle;Max_cycle;Signal;HPM_P1;HPM_P2
2024/03/23 00:00:39;;;;;;;18.30;5.18;;;;;;;8.28;100.00;101176.72;5272148;28;20035;-75
2024/03/23 00:03:11;;;;;;;18.42;4.53;;;;;;;8.26;100.00;101176.00;5268565;28;20112;-75
2024/03/23 00:05:43;;;;;;;24.48;4.40;;;;;;;8.22;100.00;101182.63;5271000;28;20031;-75
2024/03/23 00:08:14;;;;;;;22.25;5.18;;;;;;;8.21;100.00;101178.28;5276280;28;20110;-75
2024/03/23 00:10:46;;;;;;;12.30;3.85;;;;;;;8.21;100.00;101169.41;5268574;28;20026;-75
2024/03/23 00:13:17;;;;;;;25.58;4.43;;;;;;;8.17;100.00;101176.03;5274187;28;20496;-75
2024/03/23 00:15:49;;;;;;;23.73;5.18;;;;;;;8.17;100.00;101170.69;5251924;28;20287;-75
2024/03/23 00:18:23;;;;;;;20.13;4.25;;;;;;;8.13;100.00;101174.63;5274784;28;20038;-75
2024/03/23 00:20:54;;;;;;;31.05;5.40;;;;;;;8.15;100.00;101175.34;5273326;28;20047;-75
2024/03/23 00:23:26;;;;;;;24.17;5.70;;;;;;;8.18;100.00;101165.22;5264477;28;20066;-75
2024/03/23 00:25:58;;;;;;;20.67;4.93;;;;;;;8.20;100.00;101168.56;5274463;28;20392;-75
2024/03/23 00:28:29;;;;;;;21.13;5.00;;;;;;;8.20;100.00;101159.72;5270547;28;20046;-75
2024/03/23 00:31:01;;;;;;;25.50;5.53;;;;;;;8.19;100.00;101158.03;5268716;28;20042;-75
2024/03/23 00:33:33;;;;;;;23.42;4.95;;;;;;;8.20;100.00;101154.38;5271254;28;20024;-76
2024/03/23 00:36:04;;;;;;;26.40;5.95;;;;;;;8.18;100.00;101162.53;5273181;28;20032;-75
2024/03/23 00:38:36;;;;;;;19.40;4.75;;;;;;;8.23;100.00;101165.63;5272870;28;20051;-75
2024/03/23 00:41:08;;;;;;;22.75;4.70;;;;;;;8.25;100.00;101155.63;5272616;28;20118;-75
2024/03/23 00:43:39;;;;;;;17.02;4.25;;;;;;;8.23;100.00;101154.94;5268640;28;20539;-75
2024/03/23 00:46:11;;;;;;;25.80;4.80;;;;;;;8.22;100.00;101137.19;5276254;28;20030;-75
2024/03/23 00:48:45;;;;;;;15.10;4.00;;;;;;;8.23;100.00;101140.69;5275079;28;20686;-75
2024/03/23 00:51:16;;;;;;;23.33;3.97;;;;;;;8.22;100.00;101128.31;5271386;28;20034;-75
2024/03/23 00:53:47;;;;;;;19.77;4.45;;;;;;;8.21;100.00;101126.66;5275182;28;20037;-74
2024/03/23 00:56:17;;;;;;;22.23;5.00;;;;;;;8.21;100.00;101115.97;5278705;28;20027;-75
2024/03/23 00:58:48;;;;;;;19.45;5.45;;;;;;;8.22;100.00;101114.97;5272301;28;20023;-75
2024/03/23 01:01:18;;;;;;;25.42;5.20;;;;;;;8.21;100.00;101111.44;5277446;28;20031;-75
2024/03/23 01:03:49;;;;;;;30.05;4.80;;;;;;;8.26;100.00;101117.22;5279702;28;20039;-75
2024/03/23 01:06:19;;;;;;;22.60;5.43;;;;;;;8.26;100.00;101117.22;5281993;28;20084;-76
2024/03/23 01:08:50;;;;;;;28.60;5.68;;;;;;;8.25;100.00;101115.53;5280494;28;20020;-75
2024/03/23 01:11:20;;;;;;;29.23;7.57;;;;;;;8.21;100.00;101111.44;5276887;28;20082;-75
2024/03/23 01:13:54;;;;;;;22.10;4.70;;;;;;;8.24;100.00;101134.41;5276121;28;20023;-74
2024/03/23 01:16:25;;;;;;;24.45;6.15;;;;;;;8.26;100.00;101125.22;5272860;28;20031;-75
2024/03/23 01:18:55;;;;;;;24.58;5.25;;;;;;;8.24;100.00;101113.00;5277392;28;20031;-75
2024/03/23 01:21:26;;;;;;;19.40;5.45;;;;;;;8.26;100.00;101130.56;5269756;28;20163;-74
2024/03/23 01:23:57;;;;;;;26.75;4.60;;;;;;;8.34;100.00;101119.16;5268340;28;20024;-75
2024/03/23 01:26:27;;;;;;;16.25;4.45;;;;;;;8.27;100.00;101116.22;5275797;27;20035;-75
2024/03/23 01:28:58;;;;;;;16.35;4.70;;;;;;;8.25;100.00;101118.19;5276944;28;20024;-75
2024/03/23 01:31:28;;;;;;;24.77;5.00;;;;;;;8.19;100.00;101105.41;5277663;27;20055;-74
2024/03/23 01:33:59;;;;;;;21.38;4.70;;;;;;;8.15;100.00;101098.66;5269408;28;20085;-75
2024/03/23 01:36:29;;;;;;;22.75;4.90;;;;;;;8.11;100.00;101099.09;5276831;28;20039;-75
2024/03/23 01:38:59;;;;;;;22.30;4.78;;;;;;;8.09;100.00;101098.41;5267901;28;20059;-74
2024/03/23 01:41:30;;;;;;;23.70;4.95;;;;;;;8.05;100.00;101098.69;5268190;28;20027;-75
2024/03/23 01:44:05;;;;;;;22.73;5.22;;;;;;;8.04;100.00;101097.00;5278524;28;20034;-75
2024/03/23 01:46:37;;;;;;;25.52;5.43;;;;;;;8.05;100.00;101097.84;5276353;27;20057;-75
2024/03/23 01:49:08;;;;;;;33.15;5.70;;;;;;;8.07;100.00;101100.38;5272216;28;20027;-75
2024/03/23 01:51:39;;;;;;;30.92;7.47;;;;;;;8.04;100.00;101099.69;5274232;28;20020;-75
2024/03/23 01:54:10;;;;;;;22.13;6.07;;;;;;;8.10;100.00;101100.09;5276866;28;20073;-75
2024/03/23 01:56:40;;;;;;;26.17;6.05;;;;;;;8.07;100.00;101109.22;5273758;28;20050;-75
2024/03/23 01:59:11;;;;;;;21.90;6.82;;;;;;;8.03;100.00;101099.81;5277369;28;20031;-75
2024/03/23 02:01:41;;;;;;;25.65;6.32;;;;;;;7.96;100.00;101099.53;5273043;28;20056;-75
2024/03/23 02:04:12;;;;;;;28.85;5.93;;;;;;;7.89;100.00;101095.78;5275525;28;20029;-74
2024/03/23 02:06:42;;;;;;;36.08;6.55;;;;;;;7.84;100.00;101099.88;5275510;28;20042;-75
2024/03/23 02:09:13;;;;;;;27.35;5.65;;;;;;;7.78;100.00;101098.56;5269169;28;20015;-75
2024/03/23 02:11:44;;;;;;;22.15;6.70;;;;;;;7.76;100.00;101096.06;5272052;28;20492;-74
2024/03/23 02:14:15;;;;;;;27.67;6.50;;;;;;;7.70;100.00;101088.63;5267579;28;20024;-75
2024/03/23 02:16:47;;;;;;;30.10;6.80;;;;;;;7.65;100.00;101088.19;5275882;28;20099;-76
2024/03/23 02:19:17;;;;;;;40.17;7.78;;;;;;;7.65;100.00;101090.03;5276832;28;20031;-76
2024/03/23 02:21:48;;;;;;;24.02;6.65;;;;;;;7.60;100.00;101093.13;5270798;28;20027;-76
2024/03/23 02:24:18;;;;;;;33.15;8.23;;;;;;;7.61;100.00;101099.31;5267171;28;20396;-76
2024/03/23 02:26:49;;;;;;;38.30;7.40;;;;;;;7.68;100.00;101087.06;5271734;28;20020;-76
2024/03/23 02:29:20;;;;;;;26.88;7.25;;;;;;;7.71;100.00;101086.78;5270033;28;20034;-75
2024/03/23 02:31:51;;;;;;;31.85;7.65;;;;;;;7.68;100.00;101090.59;5271449;28;20047;-75
2024/03/23 02:34:21;;;;;;;33.95;9.15;;;;;;;7.73;100.00;101093.69;5272310;28;20392;-76
2024/03/23 02:36:51;;;;;;;34.10;8.27;;;;;;;7.76;100.00;101092.53;5269445;28;20413;-75
2024/03/23 02:39:22;;;;;;;31.55;7.07;;;;;;;7.76;100.00;101087.19;5269306;28;20459;-75
2024/03/23 02:41:52;;;;;;;33.60;8.65;;;;;;;7.77;100.00;101091.56;5268939;28;20048;-76
2024/03/23 02:44:23;;;;;;;32.03;8.20;;;;;;;7.81;100.00;101094.78;5272592;28;20201;-76
2024/03/23 02:46:53;;;;;;;29.98;7.65;;;;;;;7.84;100.00;101091.84;5270963;28;20115;-76
2024/03/23 02:49:25;;;;;;;26.52;9.02;;;;;;;7.86;100.00;101088.03;5271480;28;20030;-77
2024/03/23 02:51:56;;;;;;;26.92;8.40;;;;;;;7.87;100.00;101095.06;5265676;28;20032;-77
2024/03/23 02:54:26;;;;;;;42.28;10.18;;;;;;;7.86;100.00;101096.06;5274967;28;20016;-75
2024/03/23 02:56:57;;;;;;;36.28;9.23;;;;;;;7.89;100.00;101100.28;5277109;28;20098;-78
2024/03/23 02:59:32;;;;;;;29.10;10.32;;;;;;;7.90;100.00;101100.13;5272132;28;20024;-75
2024/03/23 03:02:04;;;;;;;35.20;9.68;;;;;;;7.87;100.00;101096.88;5270014;28;20401;-76
2024/03/23 03:04:35;;;;;;;35.60;9.32;;;;;;;7.88;100.00;101098.56;5275073;28;20095;-78
2024/03/23 03:07:06;;;;;;;40.17;10.20;;;;;;;7.88;100.00;101099.44;5270680;28;20106;-76
2024/03/23 03:09:38;;;;;;;34.85;11.15;;;;;;;7.88;100.00;101096.75;5269394;28;20024;-76
2024/03/23 03:12:10;;;;;;;37.08;9.88;;;;;;;7.88;100.00;101095.91;5273199;28;20031;-78
2024/03/23 03:14:40;;;;;;;42.15;12.55;;;;;;;7.92;100.00;101098.13;5268566;28;20416;-75
2024/03/23 03:17:11;;;;;;;39.35;10.77;;;;;;;7.88;100.00;101091.44;5275628;28;20374;-75
2024/03/23 03:19:41;;;;;;;35.92;10.35;;;;;;;7.87;100.00;101086.19;5265890;28;20023;-78
2024/03/23 03:22:12;;;;;;;42.72;11.00;;;;;;;7.83;100.00;101079.47;5269242;28;20028;-75
2024/03/23 03:24:43;;;;;;;32.42;10.27;;;;;;;7.83;100.00;101092.81;5270788;28;20018;-75
2024/03/23 03:27:14;;;;;;;30.85;10.30;;;;;;;7.80;100.00;101080.59;5271095;28;20103;-76
2024/03/23 03:29:45;;;;;;;44.83;11.13;;;;;;;7.79;100.00;101078.91;5273640;28;20012;-75
2024/03/23 03:32:15;;;;;;;34.92;11.27;;;;;;;7.72;100.00;101075.94;5269650;28;20050;-78
2024/03/23 03:34:46;;;;;;;49.33;11.75;;;;;;;7.68;100.00;101076.38;5274321;28;20015;-75
2024/03/23 03:37:17;;;;;;;31.90;9.77;;;;;;;7.64;100.00;101089.19;5275659;28;20022;-75
2024/03/23 03:39:47;;;;;;;42.08;10.30;;;;;;;7.64;100.00;101077.66;5277279;28;20015;-75
2024/03/23 03:42:18;;;;;;;29.25;9.90;;;;;;;7.62;100.00;101071.59;5272979;28;20374;-78
2024/03/23 03:44:48;;;;;;;35.75;12.27;;;;;;;7.56;100.00;101069.50;5274618;28;20047;-75
2024/03/23 03:47:19;;;;;;;36.35;10.38;;;;;;;7.50;100.00;101071.75;5276955;28;20480;-77
2024/03/23 03:49:49;;;;;;;33.10;10.35;;;;;;;7.43;100.00;101070.66;5271918;28;20034;-76
2024/03/23 03:52:20;;;;;;;51.92;11.63;;;;;;;7.37;100.00;101068.53;5279275;28;20035;-77
2024/03/23 03:54:51;;;;;;;44.17;13.23;;;;;;;7.32;100.00;101075.25;5275121;28;20062;-75
2024/03/23 03:57:21;;;;;;;38.38;10.93;;;;;;;7.25;100.00;101075.00;5274835;28;20016;-75
2024/03/23 03:59:52;;;;;;;38.83;10.98;;;;;;;7.23;100.00;101067.13;5276778;28;20103;-75
2024/03/23 04:02:22;;;;;;;34.30;10.63;;;;;;;7.22;100.00;101065.41;5274901;28;20102;-77
2024/03/23 04:04:53;;;;;;;35.67;11.23;;;;;;;7.25;100.00;101077.66;5274593;28;20041;-75
2024/03/23 04:07:24;;;;;;;34.15;11.82;;;;;;;7.27;100.00;101079.19;5279505;28;20917;-75
2024/03/23 04:09:54;;;;;;;36.38;12.23;;;;;;;7.32;100.00;101076.09;5279735;28;20493;-75
2024/03/23 04:12:26;;;;;;;38.20;10.35;;;;;;;7.36;100.00;101079.34;5279832;28;20019;-75
2024/03/23 04:14:56;;;;;;;36.50;11.90;;;;;;;7.37;100.00;101079.19;5279748;28;20652;-75
2024/03/23 04:17:31;;;;;;;38.47;12.98;;;;;;;7.38;100.00;101083.56;5279370;28;20020;-76
2024/03/23 04:20:04;;;;;;;46.75;12.88;;;;;;;7.39;100.00;101081.75;5279584;28;20519;-75
2024/03/23 04:22:34;;;;;;;38.45;11.35;;;;;;;7.41;100.00;101071.75;5279688;28;20039;-75
2024/03/23 04:25:06;;;;;;;65.05;13.45;;;;;;;7.39;100.00;101068.41;5278397;28;20019;-75
2024/03/23 04:27:37;;;;;;;41.00;12.18;;;;;;;7.40;100.00;101070.09;5276079;28;20024;-78
2024/03/23 04:30:11;;;;;;;43.22;11.90;;;;;;;7.38;100.00;101074.69;5279444;28;20030;-76
2024/03/23 04:32:41;;;;;;;45.28;12.80;;;;;;;7.39;100.00;101076.41;5274325;28;20036;-76
2024/03/23 04:35:12;;;;;;;36.83;11.52;;;;;;;7.38;100.00;101077.38;5281567;28;20042;-75
2024/03/23 04:37:43;;;;;;;47.60;12.90;;;;;;;7.38;100.00;101083.56;5276612;28;20028;-76
2024/03/23 04:40:13;;;;;;;45.22;11.98;;;;;;;7.40;100.00;101083.44;5279597;28;20022;-76
2024/03/23 04:42:44;;;;;;;48.70;11.55;;;;;;;7.42;100.00;101076.94;5271806;28;20862;-75
2024/03/23 04:45:15;;;;;;;44.40;12.05;;;;;;;7.41;100.00;101077.94;5272505;28;20080;-75
2024/03/23 04:47:45;;;;;;;34.67;10.93;;;;;;;7.41;100.00;101085.94;5261737;28;20047;-75
2024/03/23 04:50:16;;;;;;;34.20;11.68;;;;;;;7.41;100.00;101085.94;5273931;28;20053;-75
2024/03/23 04:52:47;;;;;;;36.83;10.40;;;;;;;7.43;100.00;101092.00;5277906;28;20034;-77
2024/03/23 04:55:17;;;;;;;36.33;11.55;;;;;;;7.43;100.00;101086.66;5277878;28;20019;-76
2024/03/23 04:57:48;;;;;;;33.83;11.13;;;;;;;7.42;100.00;101082.28;5277312;28;20028;-75
2024/03/23 05:00:18;;;;;;;48.17;11.40;;;;;;;7.43;100.00;101083.13;5278725;27;20102;-75
2024/03/23 05:02:49;;;;;;;38.70;10.93;;;;;;;7.45;100.00;101081.19;5272546;28;20049;-77
2024/03/23 05:05:19;;;;;;;46.55;10.82;;;;;;;7.48;100.00;101087.09;5280213;28;20026;-75
2024/03/23 05:07:50;;;;;;;38.42;12.57;;;;;;;7.48;100.00;101084.41;5279396;28;20385;-76
2024/03/23 05:10:20;;;;;;;38.58;10.68;;;;;;;7.47;100.00;101087.22;5276763;28;20100;-75
2024/03/23 05:12:51;;;;;;;35.00;11.93;;;;;;;7.46;100.00;101089.03;5268011;28;20020;-75
2024/03/23 05:15:22;;;;;;;43.58;10.93;;;;;;;7.43;100.00;101086.66;5276322;27;20026;-77
2024/03/23 05:17:54;;;;;;;35.45;11.00;;;;;;;7.39;100.00;101085.25;5279016;28;20019;-75
2024/03/23 05:20:24;;;;;;;46.47;11.77;;;;;;;7.38;100.00;101086.25;5277089;28;20034;-76
2024/03/23 05:22:55;;;;;;;38.53;10.02;;;;;;;7.38;100.00;101083.56;5274047;28;20025;-75
2024/03/23 05:25:25;;;;;;;37.00;10.52;;;;;;;7.28;100.00;101077.38;5278707;28;20106;-75
2024/03/23 05:27:56;;;;;;;39.38;11.82;;;;;;;7.30;100.00;101078.09;5271443;28;20073;-76
2024/03/23 05:30:26;;;;;;;30.58;10.45;;;;;;;7.25;100.00;101073.16;5275834;28;20107;-76
2024/03/23 05:32:57;;;;;;;32.40;10.73;;;;;;;7.23;100.00;101079.63;5275552;28;20461;-75
2024/03/23 05:35:28;;;;;;;30.88;9.80;;;;;;;7.19;100.00;101072.88;5278245;28;20496;-77
2024/03/23 05:37:58;;;;;;;38.78;9.25;;;;;;;7.17;100.00;101077.50;5279415;28;20524;-75
2024/03/23 05:40:29;;;;;;;28.85;9.68;;;;;;;7.12;100.00;101079.72;5276176;28;20039;-75
2024/03/23 05:42:59;;;;;;;27.70;8.80;;;;;;;7.11;100.00;101083.38;5277679;28;20042;-75
2024/03/23 05:45:30;;;;;;;38.55;9.02;;;;;;;7.08;100.00;101081.84;5272987;28;20032;-76
2024/03/23 05:48:00;;;;;;;32.47;8.82;;;;;;;7.10;100.00;101081.72;5276866;28;20038;-75
2024/03/23 05:50:31;;;;;;;25.30;8.40;;;;;;;7.06;100.00;101082.97;5270487;28;20028;-75
2024/03/23 05:53:01;;;;;;;33.65;8.43;;;;;;;7.06;100.00;101085.63;5276373;28;20016;-75
2024/03/23 05:55:32;;;;;;;35.60;8.23;;;;;;;7.08;100.00;101086.31;5275246;28;20027;-75
2024/03/23 05:58:03;;;;;;;27.52;7.38;;;;;;;7.08;100.00;101089.84;5275760;28;20028;-77
2024/03/23 06:00:33;;;;;;;28.15;6.88;;;;;;;7.16;100.00;101089.16;5275003;28;20076;-75
2024/03/23 06:03:04;;;;;;;33.47;7.82;;;;;;;7.22;100.00;101093.94;5268231;28;20291;-75
2024/03/23 06:05:34;;;;;;;34.50;7.65;;;;;;;7.32;100.00;101088.59;5273725;28;20043;-77
2024/03/23 06:08:06;;;;;;;26.08;6.82;;;;;;;7.42;100.00;101089.47;5276947;28;20438;-75
2024/03/23 06:10:36;;;;;;;26.63;7.05;;;;;;;7.49;100.00;101102.13;5271157;28;20024;-76
2024/03/23 06:13:08;;;;;;;25.10;6.78;;;;;;;7.58;100.00;101092.44;5275250;28;20029;-76
2024/03/23 06:15:38;;;;;;;27.40;6.88;;;;;;;7.68;100.00;101101.28;5261137;28;20280;-77
2024/03/23 06:18:09;;;;;;;31.52;6.43;;;;;;;7.83;100.00;101100.81;5274951;28;20024;-75
2024/03/23 06:20:39;;;;;;;27.27;6.25;;;;;;;7.90;100.00;101105.47;5271794;28;20042;-74
2024/03/23 06:23:10;;;;;;;27.98;6.70;;;;;;;7.97;100.00;101103.91;5265399;28;20027;-78
2024/03/23 06:25:40;;;;;;;22.75;5.20;;;;;;;7.90;100.00;101102.78;5270658;28;20023;-74
2024/03/23 06:28:11;;;;;;;24.38;7.15;;;;;;;7.88;100.00;101104.78;5273354;28;20387;-77
2024/03/23 06:30:41;;;;;;;25.05;5.38;;;;;;;7.88;100.00;101109.25;5268989;28;20062;-75
2024/03/23 06:33:12;;;;;;;27.25;5.45;;;;;;;7.86;100.00;101104.06;5272610;28;20065;-75
2024/03/23 06:35:42;;;;;;;17.17;5.55;;;;;;;7.82;100.00;101099.97;5272854;28;20028;-77
2024/03/23 06:38:13;;;;;;;21.90;5.43;;;;;;;7.83;100.00;101100.81;5274345;28;20028;-75
2024/03/23 06:40:47;;;;;;;18.92;5.53;;;;;;;7.84;100.00;101103.38;5269384;28;20554;-77
2024/03/23 06:43:18;;;;;;;13.17;4.87;;;;;;;7.88;100.00;101109.25;5265163;28;20019;-75
2024/03/23 06:45:55;;;;;;;20.33;5.22;;;;;;;8.10;100.00;101121.47;5273696;28;20269;-75
2024/03/23 06:48:26;;;;;;;24.17;5.30;;;;;;;8.51;100.00;101121.09;5270238;28;20036;-75
2024/03/23 06:50:57;;;;;;;16.00;4.25;;;;;;;8.82;100.00;101121.66;5271940;28;20527;-75
2024/03/23 06:53:27;;;;;;;18.20;4.75;;;;;;;9.24;100.00;101120.34;5272112;28;20085;-75
2024/03/23 06:55:58;;;;;;;21.67;4.47;;;;;;;9.66;100.00;101122.41;5274617;28;20027;-75
2024/03/23 06:58:28;;;;;;;16.17;3.85;;;;;;;10.04;100.00;101111.34;5268974;28;20031;-76
2024/03/23 07:00:59;;;;;;;15.52;4.25;;;;;;;10.04;100.00;101113.16;5274442;28;20030;-75
2024/03/23 07:03:29;;;;;;;17.60;3.67;;;;;;;9.83;100.00;101119.72;5267727;28;20024;-74
2024/03/23 07:06:00;;;;;;;19.05;4.28;;;;;;;9.58;100.00;101118.66;5265530;28;20430;-74
2024/03/23 07:08:30;;;;;;;20.60;3.63;;;;;;;9.23;100.00;101132.00;5273195;28;20430;-74
2024/03/23 07:11:01;;;;;;;13.35;3.00;;;;;;;9.08;100.00;101129.84;5276784;28;20024;-75
2024/03/23 07:13:32;;;;;;;15.60;3.20;;;;;;;8.95;100.00;101126.69;5274275;28;20398;-74
2024/03/23 07:16:02;;;;;;;24.40;3.53;;;;;;;8.83;100.00;101133.22;5274598;28;20031;-75
2024/03/23 07:18:34;;;;;;;15.88;3.80;;;;;;;8.72;100.00;101138.75;5270606;28;20165;-75
2024/03/23 07:21:06;;;;;;;15.38;4.38;;;;;;;8.82;100.00;101120.84;5273141;28;20043;-75
2024/03/23 07:23:37;;;;;;;20.67;4.22;;;;;;;9.32;100.00;101134.63;5273748;28;20081;-74
2024/03/23 07:26:08;;;;;;;21.20;4.05;;;;;;;9.75;100.00;101134.91;5280169;28;20100;-74
2024/03/23 07:28:43;;;;;;;14.68;2.85;;;;;;;9.97;100.00;101125.53;5273587;28;20028;-74
2024/03/23 07:31:14;;;;;;;14.65;3.30;;;;;;;10.33;100.00;101132.50;5279879;28;20038;-75
2024/03/23 07:33:47;;;;;;;13.35;3.55;;;;;;;10.80;100.00;101132.13;5272929;28;20478;-74
2024/03/23 07:36:17;;;;;;;14.88;3.92;;;;;;;11.20;100.00;101127.06;5278373;28;20027;-74
2024/03/23 07:38:48;;;;;;;16.48;3.10;;;;;;;11.57;100.00;101130.16;5276120;28;20027;-74
2024/03/23 07:41:20;;;;;;;15.23;2.83;;;;;;;11.76;100.00;101120.13;5274818;28;20079;-74
2024/03/23 07:43:50;;;;;;;13.60;2.85;;;;;;;11.89;100.00;101125.84;5272413;28;20027;-74
2024/03/23 07:46:21;;;;;;;16.75;3.33;;;;;;;11.92;100.00;101137.13;5276884;27;20362;-74
2024/03/23 07:48:52;;;;;;;14.45;3.15;;;;;;;12.32;100.00;101137.25;5274410;28;20028;-74
2024/03/23 07:51:22;;;;;;;14.15;3.00;;;;;;;12.19;100.00;101125.16;5275818;27;20069;-74
2024/03/23 07:53:53;;;;;;;13.48;2.90;;;;;;;12.38;100.00;101126.66;5272726;28;20047;-74
2024/03/23 07:56:24;;;;;;;13.15;2.22;;;;;;;12.55;100.00;101126.59;5276554;28;20036;-75
2024/03/23 07:58:54;;;;;;;13.82;2.75;;;;;;;12.75;100.00;101138.69;5273361;28;20020;-75
2024/03/23 08:01:25;;;;;;;11.60;2.40;;;;;;;12.76;100.00;101134.13;5272519;28;20053;-75
2024/03/23 08:03:55;;;;;;;7.35;2.22;;;;;;;12.59;100.00;101130.63;5270345;28;20012;-75
2024/03/23 08:06:26;;;;;;;17.90;3.22;;;;;;;12.73;100.00;101131.78;5273742;28;20034;-75
2024/03/23 08:09:03;;;;;;;14.40;3.63;;;;;;;12.79;100.00;101144.53;5274392;28;20106;-75
2024/03/23 08:11:34;;;;;;;13.50;2.35;;;;;;;12.22;100.00;101133.91;5272855;28;20032;-75
2024/03/23 08:14:05;;;;;;;13.95;2.85;;;;;;;11.58;100.00;101131.00;5276363;28;20039;-75
2024/03/23 08:16:36;;;;;;;12.65;2.50;;;;;;;11.82;100.00;101138.28;5277691;28;20529;-75
2024/03/23 08:19:08;;;;;;;11.15;2.80;;;;;;;12.29;100.00;101142.97;5277614;28;20024;-75
2024/03/23 08:21:39;;;;;;;15.38;2.53;;;;;;;12.07;100.00;101137.28;5277747;27;20044;-75
2024/03/23 08:24:09;;;;;;;9.65;2.42;;;;;;;11.95;100.00;101135.94;5275416;28;20015;-74
2024/03/23 08:26:40;;;;;;;11.07;3.00;;;;;;;11.81;100.00;101139.28;5276081;28;20032;-74
2024/03/23 08:29:10;;;;;;;14.70;2.97;;;;;;;11.87;100.00;101138.63;5276618;28;20075;-73
2024/03/23 08:31:40;;;;;;;16.13;2.63;;;;;;;11.98;100.00;101129.38;5276098;28;20028;-74
2024/03/23 08:34:11;;;;;;;16.20;3.00;;;;;;;11.92;100.00;101130.91;5278545;28;20362;-73
2024/03/23 08:36:41;;;;;;;13.68;3.22;;;;;;;11.71;100.00;101133.22;5273897;28;20094;-75
2024/03/23 08:39:12;;;;;;;13.48;3.30;;;;;;;11.67;100.00;101130.84;5278381;28;20032;-75
2024/03/23 08:41:45;;;;;;;17.48;3.40;;;;;;;11.66;100.00;101131.03;5276704;28;20062;-75
2024/03/23 08:44:16;;;;;;;10.32;2.92;;;;;;;11.45;100.00;101127.97;5270108;28;20020;-75
2024/03/23 08:46:46;;;;;;;15.82;2.97;;;;;;;11.35;100.00;101138.88;5276369;28;20031;-75
2024/03/23 08:49:18;;;;;;;16.83;3.22;;;;;;;11.23;100.00;101132.94;5274761;27;20363;-75
2024/03/23 08:51:48;;;;;;;13.98;3.03;;;;;;;11.12;100.00;101131.41;5271931;28;20019;-75
2024/03/23 08:54:20;;;;;;;16.13;3.13;;;;;;;10.95;100.00;101134.22;5277374;28;20023;-75
2024/03/23 08:56:50;;;;;;;9.73;2.47;;;;;;;10.73;100.00;101133.75;5275260;28;20024;-75
2024/03/23 08:59:21;;;;;;;16.55;3.03;;;;;;;10.77;100.00;101127.06;5274077;28;20378;-74
2024/03/23 09:01:51;;;;;;;20.75;3.03;;;;;;;11.19;100.00;101130.75;5275284;28;20035;-75
2024/03/23 09:04:22;;;;;;;10.38;2.50;;;;;;;11.47;100.00;101123.28;5273335;28;20090;-75
2024/03/23 09:06:52;;;;;;;12.50;2.90;;;;;;;11.92;100.00;101128.22;5275115;28;20020;-74
2024/03/23 09:09:22;;;;;;;12.75;2.10;;;;;;;12.15;100.00;101129.22;5273830;28;20377;-75
2024/03/23 09:11:53;;;;;;;13.90;2.35;;;;;;;12.57;100.00;101136.19;5274832;28;20066;-74
2024/03/23 09:14:23;;;;;;;7.35;2.25;;;;;;;12.96;100.00;101130.00;5267944;28;20023;-75
2024/03/23 09:16:54;;;;;;;11.55;2.25;;;;;;;13.03;100.00;101136.38;5274955;28;20036;-74
2024/03/23 09:19:28;;;;;;;10.02;2.13;;;;;;;12.99;100.00;101134.19;5272637;28;20107;-75
2024/03/23 09:21:59;;;;;;;5.80;2.20;;;;;;;13.28;100.00;101133.59;5275331;28;20740;-75
2024/03/23 09:24:29;;;;;;;8.57;2.05;;;;;;;13.39;100.00;101133.19;5272388;28;20027;-74
2024/03/23 09:27:00;;;;;;;9.68;2.20;;;;;;;13.39;100.00;101141.25;5275690;28;20019;-74
2024/03/23 09:29:30;;;;;;;9.60;2.72;;;;;;;13.67;100.00;101126.25;5274813;28;20032;-74
2024/03/23 09:32:01;;;;;;;10.30;2.42;;;;;;;13.83;100.00;101132.53;5272980;28;20073;-75
2024/03/23 09:34:31;;;;;;;11.48;2.28;;;;;;;13.75;100.00;101128.03;5275328;27;20532;-75
2024/03/23 09:37:02;;;;;;;16.25;2.72;;;;;;;13.44;100.00;101126.22;5273763;28;20502;-75
2024/03/23 09:39:32;;;;;;;11.57;2.33;;;;;;;13.41;100.00;101128.47;5273343;28;20020;-74
2024/03/23 09:42:04;;;;;;;12.05;2.33;;;;;;;13.29;100.00;101124.47;5272972;28;20519;-74
2024/03/23 09:44:35;;;;;;;10.68;2.33;;;;;;;12.75;100.00;101121.66;5273542;27;20529;-73
2024/03/23 09:47:07;;;;;;;14.02;2.65;;;;;;;12.57;100.00;101122.75;5273032;28;20026;-75
2024/03/23 09:49:38;;;;;;;12.55;2.50;;;;;;;12.23;100.00;101114.91;5269780;28;20012;-75
2024/03/23 09:52:09;;;;;;;11.73;2.92;;;;;;;11.89;100.00;101125.84;5275489;28;20020;-74
2024/03/23 09:54:40;;;;;;;9.73;1.40;;;;;;;10.74;100.00;101145.31;5271930;28;20024;-75
2024/03/23 09:57:11;;;;;;;5.13;0.90;;;;;;;9.89;100.00;101150.44;5269823;28;20357;-75
2024/03/23 09:59:41;;;;;;;5.70;0.70;;;;;;;8.91;100.00;101136.00;5270962;28;20023;-75
2024/03/23 10:02:16;;;;;;;0.70;0.50;;;;;;;8.59;100.00;101141.78;5272018;28;20072;-75
2024/03/23 10:04:47;;;;;;;;;;;;;;;8.22;100.00;101141.69;5272680;28;20508;-74
2024/03/23 10:07:19;;;;;;;3.47;0.40;;;;;;;8.32;100.00;101147.84;5275000;28;19908;-74
2024/03/23 10:09:51;;;;;;;2.67;0.55;;;;;;;8.39;100.00;101148.19;5270488;28;20031;-74
2024/03/23 10:12:24;;;;;;;1.77;0.70;;;;;;;8.75;100.00;101154.53;5274076;28;20128;-74
2024/03/23 10:14:54;;;;;;;4.47;0.70;;;;;;;9.32;100.00;101137.31;5270631;28;20386;-74
2024/03/23 10:17:25;;;;;;;2.97;0.75;;;;;;;9.69;100.00;101140.84;5273153;28;20027;-74
2024/03/23 10:19:56;;;;;;;10.63;3.85;;;;;;;9.87;100.00;101139.00;5269863;28;20081;-74
2024/03/23 10:22:26;;;;;;;5.05;1.10;;;;;;;9.52;100.00;101143.38;5270839;28;20024;-75
2024/03/23 10:25:08;;;;;;;6.03;1.65;;;;;;;9.00;100.00;101131.59;5273732;28;20031;-75
2024/03/23 10:27:38;;;;;;;11.02;1.65;;;;;;;8.36;100.00;101135.94;5270168;28;20378;-75
2024/03/23 10:30:11;;;;;;;6.93;1.40;;;;;;;7.99;100.00;101131.34;5273384;28;20057;-75
2024/03/23 10:32:42;;;;;;;8.38;1.65;;;;;;;7.70;100.00;101133.19;5264522;28;20054;-75
2024/03/23 10:35:26;;;;;;;280.85;104.55;;;;;;;7.27;100.00;101121.03;5273336;28;20489;-75
2024/03/23 10:37:57;;;;;;;11.70;2.70;;;;;;;6.84;100.00;101113.38;5256468;28;20024;-75
2024/03/23 10:40:29;;;;;;;39.30;15.85;;;;;;;6.65;100.00;101122.97;5269776;28;20027;-75
2024/03/23 10:43:00;;;;;;;8.93;2.53;;;;;;;6.58;100.00;101129.00;5273985;28;20036;-74
2024/03/23 10:45:31;;;;;;;9.75;1.98;;;;;;;6.66;100.00;101116.66;5275149;28;20027;-75
2024/03/23 10:48:02;;;;;;;10.85;2.97;;;;;;;6.86;100.00;101114.91;5256000;28;20034;-75
2024/03/23 10:50:33;;;;;;;15.82;5.45;;;;;;;7.08;100.00;101116.53;5274395;28;20020;-75
2024/03/23 10:53:03;;;;;;;9.88;2.60;;;;;;;7.37;100.00;101115.72;5276319;28;20020;-75
2024/03/23 10:55:34;;;;;;;15.48;3.10;;;;;;;7.72;100.00;101112.50;5276453;28;20036;-77
2024/03/23 10:58:05;;;;;;;12.27;2.47;;;;;;;8.10;100.00;101108.13;5277660;28;20413;-75
2024/03/23 11:00:37;;;;;;;13.27;3.47;;;;;;;8.42;100.00;101116.63;5275602;28;20397;-75
2024/03/23 11:03:33;;;;;;;12.65;2.30;;;;;;;8.67;100.00;101108.94;5274055;28;20368;-75
2024/03/23 11:06:05;;;;;;;10.95;3.05;;;;;;;8.76;100.00;101114.25;5276427;28;20024;-75
2024/03/23 11:08:39;;;;;;;9.77;2.67;;;;;;;8.86;100.00;101105.34;5275863;28;20040;-77
2024/03/23 11:11:14;;;;;;;10.25;2.85;;;;;;;9.11;100.00;101112.66;5275104;28;20072;-76
2024/03/23 11:13:45;;;;;;;;;;;;;;;9.20;100.00;101109.09;5270525;28;20024;-77
2024/03/23 11:16:24;;;;;;;12.82;2.60;;;;;;;8.96;100.00;101106.13;5274993;28;20324;-75
2024/03/23 11:19:32;;;;;;;13.27;2.97;;;;;;;8.82;100.00;101108.28;5272643;28;20102;-77
2024/03/23 11:22:04;;;;;;;9.65;2.47;;;;;;;8.75;100.00;101091.16;5275100;28;20013;-76
2024/03/23 11:24:35;;;;;;;11.50;3.10;;;;;;;8.93;100.00;101095.72;5274919;28;20068;-76
2024/03/23 11:27:16;;;;;;;12.95;2.80;;;;;;;9.32;100.00;101083.75;5276868;28;20019;-75
2024/03/23 11:29:46;;;;;;;8.00;5.10;;;;;;;9.71;100.00;101079.94;5274141;28;20028;-75
2024/03/23 11:32:17;;;;;;;15.75;4.13;;;;;;;10.12;100.00;101086.44;5271873;28;20381;-75